createdAt,value
2023-01-31T00:09:00.763Z,7.78
2023-01-31T00:24:02.407Z,7.82
2023-01-31T00:39:05.022Z,7.78
2023-01-31T00:54:06.599Z,7.80
2023-01-31T01:09:08.193Z,7.77
2023-01-31T01:24:13.469Z,7.76
2023-01-31T01:39:15.046Z,7.72
2023-01-31T01:54:19.336Z,7.73
2023-01-31T02:09:41.089Z,7.67
2023-01-31T02:25:02.450Z,7.69
2023-01-31T02:40:22.900Z,7.64
2023-01-31T02:55:53.964Z,7.69
2023-01-31T03:11:01.061Z,7.67
2023-01-31T03:26:03.900Z,7.64
2023-01-31T03:41:12.910Z,7.64
2023-01-31T03:56:21.841Z,7.60
2023-01-31T04:11:25.988Z,7.62
2023-01-31T04:26:27.858Z,7.62
2023-01-31T04:41:29.498Z,7.63
2023-01-31T04:56:32.064Z,7.54
2023-01-31T05:11:33.634Z,7.51
2023-01-31T05:26:35.304Z,7.52
2023-01-31T05:41:36.894Z,7.57
2023-01-31T06:12:45.055Z,7.47
2023-01-31T06:27:46.691Z,7.50
2023-01-31T06:42:48.237Z,7.64
2023-01-31T06:57:50.226Z,7.64
2023-01-31T07:12:52.098Z,7.63
2023-01-31T07:27:53.620Z,7.67
2023-01-31T07:42:59.397Z,7.71
2023-01-31T07:58:00.910Z,7.69
2023-01-31T08:13:06.491Z,7.65
2023-01-31T08:28:08.136Z,7.77
2023-01-31T08:43:09.681Z,8.07
2023-01-31T08:58:11.231Z,8.21
2023-01-31T09:13:12.856Z,8.27
2023-01-31T09:44:30.749Z,8.32
2023-01-31T09:59:55.632Z,8.36
2023-01-31T10:15:15.014Z,8.36
2023-01-31T10:30:19.595Z,8.39
2023-01-31T10:45:23.361Z,8.38
2023-01-31T11:00:30.652Z,8.37
2023-01-31T11:15:36.515Z,8.39
2023-01-31T11:30:40.770Z,8.39
2023-01-31T11:45:47.000Z,8.39
2023-01-31T12:00:51.640Z,8.39
2023-01-31T12:16:01.602Z,8.39
2023-01-31T12:31:06.330Z,8.40
2023-01-31T12:46:11.511Z,8.39
2023-01-31T13:01:36.566Z,8.36
2023-01-31T13:16:41.759Z,8.37
2023-01-31T13:31:48.177Z,8.30
2023-01-31T13:46:58.169Z,8.27
2023-01-31T14:02:01.227Z,8.21
2023-01-31T14:17:13.067Z,8.16
2023-01-31T14:32:26.508Z,8.14
2023-01-31T14:47:28.209Z,8.09
2023-01-31T15:02:32.874Z,8.07
2023-01-31T15:17:40.284Z,8.06
2023-01-31T15:32:51.223Z,8.05
2023-01-31T15:48:00.255Z,8.04
2023-01-31T16:03:02.368Z,8.03
2023-01-31T16:18:04.237Z,8.02
2023-01-31T16:33:05.857Z,7.99
2023-01-31T16:48:26.185Z,7.96
2023-01-31T17:03:28.945Z,7.93
2023-01-31T17:18:31.287Z,7.97
2023-01-31T17:33:32.848Z,7.92
2023-01-31T17:48:34.642Z,7.94
2023-01-31T18:03:36.306Z,7.90
2023-01-31T18:18:40.582Z,7.91
2023-01-31T18:33:43.886Z,7.88
2023-01-31T18:48:45.610Z,7.88
2023-01-31T19:03:50.008Z,7.90
2023-01-31T19:18:51.837Z,7.89
2023-01-31T19:33:58.303Z,7.90
2023-01-31T19:49:00.112Z,7.86
2023-01-31T20:04:01.732Z,7.86
2023-01-31T20:19:04.392Z,7.85
2023-01-31T20:34:07.100Z,7.90
2023-01-31T20:49:08.582Z,7.89
2023-01-31T21:04:10.317Z,7.87
2023-01-31T21:19:11.873Z,7.82
2023-01-31T21:34:13.402Z,7.82
2023-01-31T21:49:14.999Z,7.80
2023-01-31T22:04:20.636Z,7.78
2023-01-31T22:19:22.199Z,7.79
2023-01-31T22:34:23.771Z,7.78
2023-01-31T23:21:52.833Z,7.76
2023-01-31T23:36:54.318Z,7.74
